aviador You're here:

VVDN Decoded Metar

DANANG in VIET NAM
Report Time2017-10-23 05:30:00
UTC Time2017-10-23 06:03:42
Flight Rules mvfr MVFR
Wind130° at 03 kt
W.Decomp.*RWY 17: 2.3 kt HW 1.9 kt LCW
W.Rank130° ranks 18
Current wind is below 130° avg. (5.8)
Visibility6000 m
Phenomena:N/A
Clouds:Few 015 Hf
Expected CloudBase > 3,200 ft AGL from Temp-Dew spread
CeilingNone
Temp30°C (ISA +15)
Dew Point22°C (62% RH)
Heat Index33.2°C
QNH1013 hPa
Density Alt2,096 ft
Elevation23 ft
Report Wrong Elevation
Raw Report
VVDN 230530Z 13003KT 040V190 6000 FEW015 30/22 Q1013 NOSIG=

Extra information for VVDN:More info

Metar Taf Metar & Taf Last 4 Metars F.Rules Stats Wind Profile Meteogram Temp Stats Airport Information Weather charts Add Link Nearby VenuesMetar ALERT Operation Metar Decoded Social comments